Briefing drone pour Belleville

Rechercher une autre localisation

Conditions de vol :


Nous sommes le : Dimanche 04 décembre 2022
Il est 19:27 UTC (20:27 LT)

Lever de soleil : 06:45 UTC (07:45 LT)
Coucher de soleil : 16:06 UTC (17:06 LT)

Météo

L'essentiel des conditions de vol

VIGILANCE MÉTÉO FRANCE - Meurthe-et-Moselle (54)
Vigilance Jaune : Neige-verglas
METAR de LFSN
LFSN 041900Z AUTO 03003KT 5000 -RA BR SCT007 BKN016 BKN029 02/02 Q1013

Date d'émission: 04/12/2022
Heure d'émission: 19:00 UTC
Vent: 030° pour 3 KT (6 km/h)
Visibilité horizontale: 5000 m
Plafond :
- Nuages épars à 700ft (213m)
- Nuages morcelés à 1600ft (488m)
- Nuages morcelés à 2900ft (884m)
Température: 2 °C
Point de rosée: 2 °C
Humidité: 100%
Pression (QNH): 1013 hPa
Conditions: Faible pluie
TAF de LFSN
LFSN 141600Z 1416/1512 CNL

Conditions prévues :

Heure d'émission : Bulletin éffectué le 14 à 16:00 UTC
Prévision : Valide du 14 a 16:00 UTC au 15 a 12:00 UTC
Nuages : à 0ft (0 m)
WEBCAM POUR BELLEVILLE

Réglementation

Voler en sécurité

CARTES AERONAUTIQUE 1/500.000
CARTE AZBA (Reseau basse altitude)
CARTES VAC (LFSN)
SUP AIP




Chargement des AIP...
NOTAM (BELLEVILLE + Terrain à proximité / FIR )




Chargement des NOTAMS...
CONTACT PREFECTURE 54


Avertissement : Les données mises à disposition sont indicatives. Oxygène Drone ne pourra être tenu responsable de dégâts causés aux biens et aux personnes.